createdAt,value
2023-09-08T00:00:14.760Z,26.10
2023-09-08T00:01:16.258Z,26.21
2023-09-08T00:02:17.942Z,26.07
2023-09-08T00:03:19.487Z,26.13
2023-09-08T00:04:21.078Z,26.19
2023-09-08T00:05:22.576Z,26.07
2023-09-08T00:06:23.942Z,26.09
2023-09-08T00:07:25.402Z,26.09
2023-09-08T00:08:26.820Z,26.10
2023-09-08T00:09:28.269Z,26.10
2023-09-08T00:10:29.656Z,26.07
2023-09-08T00:11:31.050Z,26.09
2023-09-08T00:12:32.454Z,26.07
2023-09-08T00:13:33.872Z,26.06
2023-09-08T00:14:35.266Z,26.10
2023-09-08T00:15:36.661Z,26.07
2023-09-08T00:16:38.091Z,26.10
2023-09-08T00:17:39.598Z,26.06
2023-09-08T00:18:41.031Z,26.09
2023-09-08T00:19:42.453Z,26.10
2023-09-08T00:20:43.908Z,26.09
2023-09-08T00:21:45.379Z,26.10
2023-09-08T00:22:46.833Z,26.05
2023-09-08T00:23:48.233Z,26.10
2023-09-08T00:24:49.622Z,26.07
2023-09-08T00:25:51.065Z,26.10
2023-09-08T00:26:52.442Z,26.07
2023-09-08T00:27:53.892Z,26.05
2023-09-08T00:28:55.311Z,26.13
2023-09-08T00:29:56.689Z,26.05
2023-09-08T00:30:58.082Z,26.03
2023-09-08T00:31:59.606Z,26.00
2023-09-08T00:33:01.179Z,26.05
2023-09-08T00:34:02.787Z,25.99
2023-09-08T00:35:04.340Z,26.13
2023-09-08T00:36:05.871Z,26.02
2023-09-08T00:37:07.359Z,26.09
2023-09-08T00:38:08.793Z,26.10
2023-09-08T00:39:10.310Z,26.09
2023-09-08T00:40:11.746Z,26.05
2023-09-08T00:41:13.563Z,26.00
2023-09-08T00:42:14.964Z,25.93
2023-09-08T00:43:16.352Z,26.07
2023-09-08T00:44:17.741Z,26.13
2023-09-08T00:45:19.166Z,26.06
2023-09-08T00:46:20.589Z,26.10
2023-09-08T00:47:22.114Z,25.98
2023-09-08T00:48:23.609Z,26.09
2023-09-08T00:49:25.015Z,25.99
2023-09-08T00:50:26.449Z,25.96
2023-09-08T00:51:27.904Z,25.95
2023-09-08T00:52:29.317Z,26.13
2023-09-08T00:53:30.714Z,25.96
2023-09-08T00:54:32.104Z,26.03
2023-09-08T00:55:33.496Z,25.99
2023-09-08T00:56:34.908Z,26.00
2023-09-08T00:57:36.328Z,26.09
2023-09-08T00:58:38.212Z,26.10
2023-09-08T00:59:39.175Z,25.95
2023-09-08T01:00:40.574Z,25.98
2023-09-08T01:01:41.948Z,25.95
2023-09-08T01:02:43.483Z,26.00
2023-09-08T01:03:44.981Z,25.95
2023-09-08T01:04:46.432Z,26.02
2023-09-08T01:05:47.941Z,25.93
2023-09-08T01:06:49.412Z,26.00
2023-09-08T01:07:50.809Z,25.96
2023-09-08T01:08:52.258Z,25.98
2023-09-08T01:09:53.733Z,25.99
2023-09-08T01:10:55.193Z,25.99
2023-09-08T01:11:56.691Z,25.98
2023-09-08T01:12:58.124Z,25.98
2023-09-08T01:13:59.510Z,26.02
2023-09-08T01:15:00.936Z,26.02
2023-09-08T01:16:02.388Z,25.99
2023-09-08T01:17:03.805Z,26.00
2023-09-08T01:18:05.344Z,26.03
2023-09-08T01:19:06.887Z,26.00
2023-09-08T01:20:08.285Z,26.05
2023-09-08T01:21:09.728Z,26.03
2023-09-08T01:22:11.155Z,26.02
2023-09-08T01:23:12.575Z,26.02
2023-09-08T01:24:13.984Z,25.96
2023-09-08T01:25:15.374Z,26.03
2023-09-08T01:26:16.762Z,26.02
2023-09-08T01:27:18.144Z,26.02
2023-09-08T01:28:19.584Z,26.03
2023-09-08T01:29:20.955Z,25.99
2023-09-08T01:30:22.352Z,26.02
2023-09-08T01:31:23.856Z,26.02
2023-09-08T01:32:25.463Z,26.02
2023-09-08T01:33:26.859Z,25.99
2023-09-08T01:34:28.248Z,26.02
2023-09-08T01:35:29.681Z,25.99
2023-09-08T01:36:31.078Z,26.03
2023-09-08T01:37:32.473Z,26.02
2023-09-08T01:38:34.284Z,26.00
2023-09-08T01:39:35.876Z,25.99
2023-09-08T01:40:37.268Z,26.02
2023-09-08T01:41:38.711Z,26.03
2023-09-08T01:42:40.106Z,25.96
2023-09-08T01:43:41.804Z,25.99
2023-09-08T01:44:43.235Z,25.88
2023-09-08T01:45:44.924Z,25.99
2023-09-08T01:46:46.395Z,25.99
2023-09-08T01:47:47.863Z,26.02
2023-09-08T01:48:49.277Z,25.83
2023-09-08T01:49:50.714Z,25.90
2023-09-08T01:50:52.115Z,26.00
2023-09-08T01:51:53.658Z,25.88
2023-09-08T01:52:55.034Z,25.84
2023-09-08T01:53:56.446Z,25.93
2023-09-08T01:54:57.890Z,25.83
2023-09-08T01:55:59.305Z,25.90
2023-09-08T01:57:00.707Z,25.96
2023-09-08T01:58:02.151Z,25.88
2023-09-08T01:59:03.590Z,25.93
2023-09-08T02:00:04.979Z,25.91
2023-09-08T02:01:06.406Z,25.93
2023-09-08T02:02:07.829Z,25.85
2023-09-08T02:03:09.241Z,25.84
2023-09-08T02:04:10.670Z,25.84
2023-09-08T02:05:12.258Z,25.91
2023-09-08T02:06:13.690Z,25.91
2023-09-08T02:07:15.074Z,25.83
2023-09-08T02:08:16.470Z,25.85
2023-09-08T02:09:17.903Z,25.84
2023-09-08T02:10:19.322Z,25.83
2023-09-08T02:11:20.697Z,25.81
2023-09-08T02:12:22.095Z,25.84
2023-09-08T02:13:23.496Z,25.88
2023-09-08T02:14:24.878Z,25.80
2023-09-08T02:15:26.338Z,25.84
2023-09-08T02:16:27.795Z,25.84
2023-09-08T02:17:29.261Z,25.87
2023-09-08T02:18:30.728Z,25.85
2023-09-08T02:19:32.130Z,25.83
2023-09-08T02:20:33.530Z,25.84
2023-09-08T02:21:34.959Z,25.83
2023-09-08T02:22:36.362Z,25.87
2023-09-08T02:23:37.748Z,25.84
2023-09-08T02:24:39.141Z,25.84
2023-09-08T02:25:40.543Z,25.87
2023-09-08T02:26:41.930Z,25.84
2023-09-08T02:27:43.316Z,25.85
2023-09-08T02:28:44.767Z,25.83
2023-09-08T02:29:46.155Z,25.85
2023-09-08T02:30:47.550Z,25.84
2023-09-08T02:31:48.948Z,25.90
2023-09-08T02:32:50.475Z,25.85
2023-09-08T02:33:52.101Z,25.84
2023-09-08T02:34:53.532Z,25.85
2023-09-08T02:35:54.904Z,25.84
2023-09-08T02:36:56.289Z,25.84
2023-09-08T02:37:57.683Z,25.91
2023-09-08T02:38:59.074Z,25.87
2023-09-08T02:40:00.470Z,25.85
2023-09-08T02:41:01.923Z,25.88
2023-09-08T02:42:03.317Z,25.98
2023-09-08T02:43:04.733Z,25.81
2023-09-08T02:44:06.195Z,25.87
2023-09-08T02:45:07.591Z,25.95
2023-09-08T02:46:09.019Z,25.87
2023-09-08T02:47:10.425Z,25.81
2023-09-08T02:48:11.864Z,25.85
2023-09-08T02:49:13.370Z,25.87
2023-09-08T02:50:14.988Z,25.85
2023-09-08T02:51:16.510Z,25.83
2023-09-08T02:52:17.913Z,25.87
2023-09-08T02:53:19.299Z,25.81
2023-09-08T02:54:20.731Z,25.87
2023-09-08T02:55:22.157Z,25.87
2023-09-08T02:56:23.552Z,25.84
2023-09-08T02:57:24.939Z,25.91
2023-09-08T02:58:26.358Z,25.84
2023-09-08T02:59:27.795Z,25.84
2023-09-08T03:00:29.190Z,25.81
2023-09-08T03:01:30.655Z,25.85
2023-09-08T03:02:32.255Z,25.84
2023-09-08T03:03:33.934Z,25.77
2023-09-08T03:04:35.458Z,25.81
2023-09-08T03:05:36.878Z,25.84
2023-09-08T03:06:38.276Z,25.83
2023-09-08T03:07:39.704Z,25.87
2023-09-08T03:08:41.101Z,25.83
2023-09-08T03:09:42.523Z,25.85
2023-09-08T03:10:43.961Z,25.88
2023-09-08T03:11:45.363Z,25.85
2023-09-08T03:12:46.881Z,25.84
2023-09-08T03:13:48.367Z,25.84
2023-09-08T03:14:49.778Z,25.85
2023-09-08T03:15:51.266Z,25.81
2023-09-08T03:16:52.699Z,25.87
2023-09-08T03:17:55.082Z,25.80
2023-09-08T03:18:56.535Z,25.84
2023-09-08T03:19:57.963Z,25.81
2023-09-08T03:20:59.368Z,25.85
2023-09-08T03:22:00.773Z,25.83
2023-09-08T03:23:02.170Z,25.85
2023-09-08T03:24:03.619Z,25.84
2023-09-08T03:25:05.052Z,25.83
2023-09-08T03:26:06.442Z,25.85
2023-09-08T03:27:07.909Z,25.84
2023-09-08T03:28:09.304Z,25.83
2023-09-08T03:29:10.683Z,25.93
2023-09-08T03:30:12.069Z,25.84
2023-09-08T03:31:13.610Z,25.81
2023-09-08T03:32:15.231Z,25.88
2023-09-08T03:33:16.754Z,25.87
2023-09-08T03:34:18.335Z,25.78
2023-09-08T03:35:19.847Z,25.84
2023-09-08T03:36:21.305Z,25.81
2023-09-08T03:37:22.671Z,25.77
2023-09-08T03:38:24.119Z,25.77
2023-09-08T03:39:25.503Z,25.81
2023-09-08T03:40:26.927Z,25.81
2023-09-08T03:41:28.322Z,25.85
2023-09-08T03:42:29.713Z,25.83
2023-09-08T03:43:31.108Z,25.81
2023-09-08T03:44:32.495Z,25.81
2023-09-08T03:45:33.916Z,25.81
2023-09-08T03:46:35.465Z,25.85
2023-09-08T03:47:36.941Z,25.83
2023-09-08T03:48:38.392Z,25.78
2023-09-08T03:49:39.814Z,25.87
2023-09-08T03:50:41.225Z,25.81
2023-09-08T03:51:42.613Z,25.83
2023-09-08T03:52:43.997Z,25.84
2023-09-08T03:53:45.473Z,25.80
2023-09-08T03:54:46.867Z,25.78
2023-09-08T03:55:48.256Z,25.81
2023-09-08T03:56:49.642Z,25.83
2023-09-08T03:57:51.049Z,25.88
2023-09-08T03:58:52.555Z,25.77
2023-09-08T03:59:53.944Z,25.84
2023-09-08T04:00:55.350Z,25.83
2023-09-08T04:01:56.744Z,25.83
2023-09-08T04:02:58.284Z,25.83
2023-09-08T04:03:59.764Z,25.87
2023-09-08T04:05:01.204Z,25.85
2023-09-08T04:06:02.591Z,25.84
2023-09-08T04:07:04.019Z,25.81
2023-09-08T04:08:05.407Z,25.81
2023-09-08T04:09:06.933Z,25.80
2023-09-08T04:10:08.315Z,25.85
2023-09-08T04:11:09.720Z,25.83
2023-09-08T04:12:11.138Z,25.80
2023-09-08T04:13:12.522Z,25.85
2023-09-08T04:14:13.974Z,25.83
2023-09-08T04:15:15.462Z,25.69
2023-09-08T04:16:16.897Z,25.85
2023-09-08T04:17:18.337Z,25.77
2023-09-08T04:18:19.833Z,25.84
2023-09-08T04:19:21.282Z,25.78
2023-09-08T04:20:22.669Z,25.80
2023-09-08T04:21:24.114Z,25.84
2023-09-08T04:22:25.542Z,25.75
2023-09-08T04:23:26.941Z,25.81
2023-09-08T04:24:28.531Z,25.83
2023-09-08T04:25:29.917Z,25.81
2023-09-08T04:26:31.304Z,25.90
2023-09-08T04:27:32.699Z,25.80
2023-09-08T04:28:34.087Z,25.84
2023-09-08T04:29:35.475Z,25.87
2023-09-08T04:30:36.885Z,25.83
2023-09-08T04:31:38.384Z,25.84
2023-09-08T04:32:39.826Z,25.81
2023-09-08T04:33:41.313Z,25.83
2023-09-08T04:34:42.771Z,25.78
2023-09-08T04:35:44.213Z,25.81
2023-09-08T04:36:45.611Z,25.81
2023-09-08T04:37:47.043Z,25.83
2023-09-08T04:38:48.438Z,25.77
2023-09-08T04:39:49.879Z,25.84
2023-09-08T04:40:51.260Z,25.85
2023-09-08T04:41:52.656Z,25.81
2023-09-08T04:42:54.102Z,25.87
2023-09-08T04:43:55.511Z,25.78
2023-09-08T04:44:56.886Z,25.83
2023-09-08T04:45:58.327Z,25.73
2023-09-08T04:46:59.836Z,25.77
2023-09-08T04:48:01.250Z,25.85
2023-09-08T04:49:02.633Z,25.83
2023-09-08T04:50:04.049Z,25.81
2023-09-08T04:51:05.440Z,25.80
2023-09-08T04:52:06.835Z,25.80
2023-09-08T04:53:08.283Z,25.81
2023-09-08T04:54:09.675Z,25.83
2023-09-08T04:55:11.069Z,25.83
2023-09-08T04:56:12.508Z,25.84
2023-09-08T04:57:22.838Z,25.83
2023-09-08T04:58:16.293Z,25.75
2023-09-08T04:59:17.782Z,25.78
2023-09-08T05:00:19.325Z,25.85
2023-09-08T05:01:20.734Z,25.80
2023-09-08T05:02:22.217Z,25.77
2023-09-08T05:03:23.808Z,25.80
2023-09-08T05:04:25.303Z,25.83
2023-09-08T05:05:26.731Z,25.80
2023-09-08T05:06:28.130Z,25.80
2023-09-08T05:07:29.652Z,25.81
2023-09-08T05:08:31.076Z,25.83
2023-09-08T05:09:32.500Z,25.77
2023-09-08T05:10:33.924Z,25.73
2023-09-08T05:11:35.344Z,25.81
2023-09-08T05:12:36.789Z,25.81
2023-09-08T05:13:38.187Z,25.78
2023-09-08T05:14:39.637Z,25.77
2023-09-08T05:15:41.100Z,25.81
2023-09-08T05:16:42.518Z,25.85
2023-09-08T05:17:44.067Z,25.77
2023-09-08T05:18:45.514Z,25.75
2023-09-08T05:19:46.930Z,25.75
2023-09-08T05:20:48.319Z,25.83
2023-09-08T05:21:49.746Z,25.77
2023-09-08T05:22:51.173Z,25.78
2023-09-08T05:23:52.565Z,25.80
2023-09-08T05:24:54.005Z,25.80
2023-09-08T05:25:55.409Z,25.77
2023-09-08T05:26:56.792Z,25.78
2023-09-08T05:27:58.281Z,25.78
2023-09-08T05:28:59.672Z,25.77
2023-09-08T05:30:01.118Z,25.73
2023-09-08T05:31:02.650Z,25.80
2023-09-08T05:32:04.061Z,25.78
2023-09-08T05:33:05.579Z,25.85
2023-09-08T05:34:07.035Z,25.75
2023-09-08T05:35:08.526Z,25.75
2023-09-08T05:36:09.959Z,25.77
2023-09-08T05:37:11.682Z,25.80
2023-09-08T05:38:13.122Z,25.77
2023-09-08T05:39:14.535Z,25.78
2023-09-08T05:40:16.000Z,25.84
2023-09-08T05:41:17.381Z,25.80
2023-09-08T05:42:18.768Z,25.75
2023-09-08T05:43:20.232Z,25.77
2023-09-08T05:44:21.649Z,25.80
2023-09-08T05:45:23.035Z,25.75
2023-09-08T05:46:24.518Z,25.75
2023-09-08T05:47:25.971Z,25.75
2023-09-08T05:48:27.386Z,25.75
2023-09-08T05:49:28.913Z,25.81
2023-09-08T05:50:30.401Z,25.84
2023-09-08T05:51:31.794Z,25.73
2023-09-08T05:52:33.272Z,25.77
2023-09-08T05:53:34.725Z,25.73
2023-09-08T05:54:36.103Z,25.77
2023-09-08T05:55:37.493Z,25.78
2023-09-08T05:56:38.928Z,25.80
2023-09-08T05:57:40.378Z,25.75
2023-09-08T05:58:41.766Z,25.78
2023-09-08T05:59:43.250Z,25.80
2023-09-08T06:00:44.588Z,25.83
2023-09-08T06:01:45.993Z,25.81
2023-09-08T06:02:47.482Z,25.75
2023-09-08T06:03:49.175Z,25.75
2023-09-08T06:04:50.698Z,25.72
2023-09-08T06:05:52.198Z,25.75
2023-09-08T06:06:53.683Z,25.75
2023-09-08T06:08:06.384Z,25.73
2023-09-08T06:08:57.487Z,25.84
2023-09-08T06:09:58.962Z,25.75
2023-09-08T06:11:00.421Z,25.77
2023-09-08T06:12:01.845Z,25.75
2023-09-08T06:13:03.214Z,25.75
2023-09-08T06:14:04.606Z,25.73
2023-09-08T06:15:06.012Z,25.80
2023-09-08T06:16:07.430Z,25.75
2023-09-08T06:17:08.823Z,25.80
2023-09-08T06:18:10.281Z,25.77
2023-09-08T06:19:11.714Z,25.77
2023-09-08T06:20:13.119Z,25.75
2023-09-08T06:21:14.577Z,25.78
2023-09-08T06:22:16.026Z,25.77
2023-09-08T06:23:17.474Z,25.77
2023-09-08T06:24:18.867Z,25.81
2023-09-08T06:25:20.267Z,25.75
2023-09-08T06:26:21.710Z,25.77
2023-09-08T06:27:23.099Z,25.77
2023-09-08T06:28:24.540Z,25.78
2023-09-08T06:29:25.934Z,25.77
2023-09-08T06:30:27.320Z,25.78
2023-09-08T06:31:28.746Z,25.81
2023-09-08T06:32:30.174Z,25.75
2023-09-08T06:33:31.691Z,25.75
2023-09-08T06:34:33.317Z,25.75
2023-09-08T06:35:34.738Z,25.73
2023-09-08T06:36:36.254Z,25.78
2023-09-08T06:37:37.671Z,25.73
2023-09-08T06:38:39.174Z,25.72
2023-09-08T06:39:40.695Z,25.77
2023-09-08T06:40:42.078Z,25.75
2023-09-08T06:41:43.503Z,25.70
2023-09-08T06:42:44.930Z,25.81
2023-09-08T06:43:46.436Z,25.77
2023-09-08T06:44:47.922Z,25.69
2023-09-08T06:45:49.365Z,25.72
2023-09-08T06:46:50.761Z,25.75
2023-09-08T06:47:52.280Z,25.78
2023-09-08T06:48:53.678Z,25.70
2023-09-08T06:49:55.106Z,25.75
2023-09-08T06:50:56.511Z,25.72
2023-09-08T06:51:57.893Z,25.72
2023-09-08T06:52:59.286Z,25.70
2023-09-08T06:54:00.762Z,25.78
2023-09-08T06:55:02.202Z,25.70
2023-09-08T06:56:03.596Z,25.72
2023-09-08T06:57:05.085Z,25.66
2023-09-08T06:58:06.515Z,25.68
2023-09-08T06:59:07.921Z,25.69
2023-09-08T07:00:09.300Z,25.75
2023-09-08T07:01:11.766Z,25.75
2023-09-08T07:02:13.454Z,25.70
2023-09-08T07:03:14.856Z,25.69
2023-09-08T07:04:16.404Z,25.70
2023-09-08T07:05:18.046Z,25.69
2023-09-08T07:06:19.556Z,25.70
2023-09-08T07:07:21.016Z,25.65
2023-09-08T07:08:22.427Z,25.72
2023-09-08T07:09:23.814Z,25.68
2023-09-08T07:10:25.210Z,25.66
2023-09-08T07:11:26.671Z,25.70
2023-09-08T07:12:28.059Z,25.75
2023-09-08T07:13:29.476Z,25.69
2023-09-08T07:14:30.852Z,25.73
2023-09-08T07:15:32.256Z,25.69
2023-09-08T07:16:33.750Z,25.77
2023-09-08T07:17:35.146Z,25.75
2023-09-08T07:18:36.890Z,25.70
2023-09-08T07:19:38.705Z,25.69
2023-09-08T07:20:40.143Z,25.66
2023-09-08T07:21:41.542Z,25.69
2023-09-08T07:22:43.067Z,25.69
2023-09-08T07:23:44.468Z,25.70
2023-09-08T07:24:45.922Z,25.63
2023-09-08T07:25:47.306Z,25.75
2023-09-08T07:26:48.745Z,25.75
2023-09-08T07:27:50.143Z,25.73
2023-09-08T07:28:51.589Z,25.80
2023-09-08T07:29:52.994Z,25.75
2023-09-08T07:30:54.603Z,25.77
2023-09-08T07:31:55.880Z,25.77
2023-09-08T07:32:57.367Z,25.65
2023-09-08T07:33:58.771Z,25.75
2023-09-08T07:35:00.300Z,25.75
2023-09-08T07:36:01.598Z,25.70
2023-09-08T07:37:03.012Z,25.80
2023-09-08T07:38:04.522Z,25.73
2023-09-08T07:39:05.908Z,25.77
2023-09-08T07:40:07.358Z,25.66
2023-09-08T07:41:08.794Z,25.72
2023-09-08T07:42:10.193Z,25.70
2023-09-08T07:43:11.736Z,25.72
2023-09-08T07:44:13.158Z,25.81
2023-09-08T07:45:14.606Z,25.75
2023-09-08T07:46:16.184Z,25.69
2023-09-08T07:47:17.641Z,25.69
2023-09-08T07:48:19.183Z,25.72
2023-09-08T07:49:20.662Z,25.69
2023-09-08T07:50:22.064Z,25.72
2023-09-08T07:51:23.435Z,25.77
2023-09-08T07:52:24.837Z,25.70
2023-09-08T07:53:26.350Z,25.75
2023-09-08T07:54:27.743Z,25.75
2023-09-08T07:55:29.181Z,25.77
2023-09-08T07:56:30.717Z,25.77
2023-09-08T07:57:32.024Z,25.78
2023-09-08T07:58:33.648Z,25.75
2023-09-08T07:59:37.753Z,25.73
2023-09-08T08:00:37.250Z,25.72
2023-09-08T08:01:38.725Z,25.77
2023-09-08T08:02:40.138Z,25.70
2023-09-08T08:03:41.537Z,25.78
2023-09-08T08:04:42.929Z,25.75
2023-09-08T08:05:44.473Z,25.68
2023-09-08T08:06:45.842Z,25.75
2023-09-08T08:07:47.248Z,25.69
2023-09-08T08:08:48.705Z,25.75
2023-09-08T08:09:50.124Z,25.75
2023-09-08T08:10:51.510Z,25.77
2023-09-08T08:11:52.992Z,25.72
2023-09-08T08:12:54.377Z,25.62
2023-09-08T08:13:55.759Z,25.75
2023-09-08T08:14:57.217Z,25.70
2023-09-08T08:15:58.648Z,25.72
2023-09-08T08:17:00.053Z,25.66
2023-09-08T08:18:01.561Z,25.73
2023-09-08T08:19:03.201Z,25.70
2023-09-08T08:20:04.633Z,25.72
2023-09-08T08:21:06.051Z,25.75
2023-09-08T08:22:07.421Z,25.77
2023-09-08T08:23:09.101Z,25.78
2023-09-08T08:24:10.583Z,25.75
2023-09-08T08:25:12.856Z,25.75
2023-09-08T08:26:13.413Z,25.78
2023-09-08T08:27:14.994Z,25.77
2023-09-08T08:28:16.402Z,25.80
2023-09-08T08:29:17.804Z,25.75
2023-09-08T08:30:19.297Z,25.75
2023-09-08T08:31:20.675Z,25.77
2023-09-08T08:32:22.074Z,25.78
2023-09-08T08:33:23.511Z,25.83
2023-09-08T08:34:24.894Z,25.77
2023-09-08T08:35:26.372Z,25.80
2023-09-08T08:36:27.832Z,25.77
2023-09-08T08:37:29.218Z,25.77
2023-09-08T08:38:30.632Z,25.80
2023-09-08T08:39:32.522Z,25.80
2023-09-08T08:40:33.914Z,25.84
2023-09-08T08:41:35.360Z,25.78
2023-09-08T08:42:36.753Z,25.85
2023-09-08T08:43:38.224Z,25.83
2023-09-08T08:44:39.692Z,25.84
2023-09-08T08:46:56.590Z,25.81
2023-09-08T08:47:58.104Z,25.83
2023-09-08T08:48:59.529Z,25.81
2023-09-08T08:50:00.923Z,25.85
2023-09-08T08:51:02.359Z,25.84
2023-09-08T08:52:03.755Z,25.87
2023-09-08T08:53:05.148Z,25.85
2023-09-08T08:54:06.574Z,25.85
2023-09-08T08:55:08.027Z,25.85
2023-09-08T08:56:09.492Z,25.90
2023-09-08T08:57:10.973Z,25.77
2023-09-08T08:58:12.336Z,25.81
2023-09-08T08:59:13.739Z,25.83
2023-09-08T09:00:15.205Z,25.78
2023-09-08T09:01:16.610Z,25.83
2023-09-08T09:02:18.029Z,25.77
2023-09-08T09:03:19.510Z,25.84
2023-09-08T09:04:20.987Z,25.81
2023-09-08T09:05:22.417Z,25.81
2023-09-08T09:06:23.856Z,25.84
2023-09-08T09:07:25.390Z,25.85
2023-09-08T09:08:26.766Z,25.80
2023-09-08T09:09:28.265Z,25.83
2023-09-08T09:10:29.652Z,25.78
2023-09-08T09:11:31.191Z,25.81
2023-09-08T09:12:32.681Z,25.84
2023-09-08T09:13:34.076Z,25.83
2023-09-08T09:14:35.546Z,25.87
2023-09-08T09:15:37.019Z,25.85
2023-09-08T09:16:38.427Z,25.83
2023-09-08T09:17:39.855Z,25.83
2023-09-08T09:18:41.372Z,25.80
2023-09-08T09:19:42.806Z,25.80
2023-09-08T09:20:44.193Z,25.83
2023-09-08T09:21:45.628Z,25.81
2023-09-08T09:22:47.020Z,25.83
2023-09-08T09:23:48.397Z,25.80
2023-09-08T09:24:49.880Z,25.81
2023-09-08T09:25:51.380Z,25.81
2023-09-08T09:26:52.820Z,25.80
2023-09-08T09:27:54.234Z,25.81
2023-09-08T09:28:55.660Z,25.85
2023-09-08T09:29:57.148Z,25.87
2023-09-08T09:30:58.547Z,25.83
2023-09-08T09:31:59.971Z,25.84
2023-09-08T09:33:01.420Z,25.85
2023-09-08T09:34:02.847Z,25.81
2023-09-08T09:35:04.247Z,25.83
2023-09-08T09:36:05.630Z,25.87
2023-09-08T09:37:07.076Z,25.84
2023-09-08T09:38:08.477Z,25.84
2023-09-08T09:39:09.936Z,25.88
2023-09-08T09:40:11.404Z,25.87
2023-09-08T09:41:12.792Z,25.98
2023-09-08T09:42:16.357Z,25.85
2023-09-08T09:43:16.787Z,25.84
2023-09-08T09:44:18.081Z,25.83
2023-09-08T09:45:19.469Z,25.87
2023-09-08T09:46:20.956Z,25.81
2023-09-08T09:47:22.358Z,25.84
2023-09-08T09:48:23.793Z,25.85
2023-09-08T09:49:25.277Z,25.83
2023-09-08T09:50:26.647Z,25.85
2023-09-08T09:51:28.046Z,25.84
2023-09-08T09:52:29.664Z,25.91
2023-09-08T09:53:31.090Z,25.87
2023-09-08T09:54:32.494Z,25.81
2023-09-08T09:55:33.882Z,25.85
2023-09-08T09:56:35.284Z,25.85
2023-09-08T09:57:36.664Z,25.85
2023-09-08T09:58:38.212Z,25.90
2023-09-08T09:59:39.821Z,25.81
2023-09-08T10:00:41.251Z,25.85
2023-09-08T10:01:42.629Z,25.88
2023-09-08T10:02:44.075Z,25.83
2023-09-08T10:03:45.709Z,25.85
2023-09-08T10:04:47.117Z,25.88
2023-09-08T10:05:48.524Z,25.85
2023-09-08T10:06:49.894Z,25.83
2023-09-08T10:07:51.293Z,25.85
2023-09-08T10:08:52.680Z,25.84
2023-09-08T10:09:54.074Z,25.84
2023-09-08T10:10:55.462Z,25.84
2023-09-08T10:11:56.903Z,25.83
2023-09-08T10:12:58.305Z,25.87
2023-09-08T10:13:59.703Z,25.83
2023-09-08T10:15:01.190Z,25.88
2023-09-08T10:16:02.614Z,25.87
2023-09-08T10:17:04.030Z,25.84
2023-09-08T10:18:06.671Z,25.84
2023-09-08T10:19:07.920Z,25.81
2023-09-08T10:20:09.323Z,25.90
2023-09-08T10:21:10.718Z,25.90
2023-09-08T10:22:12.141Z,25.88
2023-09-08T10:23:13.548Z,25.87
2023-09-08T10:24:15.006Z,25.85
2023-09-08T10:25:16.443Z,25.87
2023-09-08T10:26:17.832Z,25.90
2023-09-08T10:27:19.313Z,25.87
2023-09-08T10:28:20.730Z,25.88
2023-09-08T10:29:22.120Z,25.87
2023-09-08T10:30:23.634Z,25.87
2023-09-08T10:31:25.109Z,25.88
2023-09-08T10:32:26.619Z,25.88
2023-09-08T10:33:28.104Z,25.88
2023-09-08T10:34:29.619Z,25.88
2023-09-08T10:35:31.104Z,25.93
2023-09-08T10:36:34.903Z,25.90
2023-09-08T10:37:34.880Z,25.85
2023-09-08T10:38:36.707Z,25.88
2023-09-08T10:39:37.851Z,25.91
2023-09-08T10:40:39.240Z,25.91
2023-09-08T10:41:40.627Z,25.88
2023-09-08T10:42:42.057Z,25.87
2023-09-08T10:43:43.451Z,26.05
2023-09-08T10:44:44.899Z,25.85
2023-09-08T10:45:46.326Z,25.93
2023-09-08T10:46:47.854Z,25.99
2023-09-08T10:47:49.248Z,25.90
2023-09-08T10:48:50.684Z,25.96
2023-09-08T10:49:52.090Z,25.91
2023-09-08T10:50:53.536Z,25.90
2023-09-08T10:51:54.954Z,25.91
2023-09-08T10:52:56.453Z,25.88
2023-09-08T10:53:57.907Z,25.88
2023-09-08T10:54:59.352Z,25.98
2023-09-08T10:56:17.196Z,25.99
2023-09-08T10:57:03.171Z,26.05
2023-09-08T10:58:04.565Z,25.96
2023-09-08T10:59:06.029Z,25.85
2023-09-08T11:00:07.413Z,25.98
2023-09-08T11:01:08.855Z,25.99
2023-09-08T11:02:10.255Z,25.98
2023-09-08T11:03:11.813Z,26.05
2023-09-08T11:04:13.469Z,25.98
2023-09-08T11:05:14.949Z,26.05
2023-09-08T11:06:16.359Z,25.96
2023-09-08T11:07:17.796Z,25.98
2023-09-08T11:08:19.274Z,25.99
2023-09-08T11:09:20.705Z,26.02
2023-09-08T11:10:22.102Z,26.00
2023-09-08T11:11:23.553Z,26.03
2023-09-08T11:12:24.924Z,25.96
2023-09-08T11:13:26.318Z,26.02
2023-09-08T11:14:27.733Z,25.95
2023-09-08T11:15:29.108Z,25.95
2023-09-08T11:16:30.661Z,25.98
2023-09-08T11:17:31.968Z,26.03
2023-09-08T11:18:33.577Z,25.99
2023-09-08T11:19:35.143Z,25.95
2023-09-08T11:20:36.557Z,25.98
2023-09-08T11:21:40.147Z,25.96
2023-09-08T11:22:40.385Z,26.02
2023-09-08T11:23:41.792Z,25.90
2023-09-08T11:24:43.198Z,25.95
2023-09-08T11:25:44.584Z,26.00
2023-09-08T11:26:46.169Z,26.03
2023-09-08T11:27:47.572Z,25.96
2023-09-08T11:28:49.028Z,25.91
2023-09-08T11:29:50.468Z,25.91
2023-09-08T11:30:52.061Z,25.96
2023-09-08T11:31:53.866Z,25.95
2023-09-08T11:32:55.312Z,25.98
2023-09-08T11:33:56.941Z,26.05
2023-09-08T11:34:58.349Z,25.98
2023-09-08T11:35:59.793Z,25.96
2023-09-08T11:37:01.245Z,25.96
2023-09-08T11:38:02.636Z,26.07
2023-09-08T11:39:04.049Z,25.96
2023-09-08T11:40:05.462Z,25.99
2023-09-08T11:41:06.862Z,26.05
2023-09-08T11:42:08.250Z,25.93
2023-09-08T11:43:09.668Z,26.05
2023-09-08T11:44:11.086Z,25.95
2023-09-08T11:45:12.500Z,26.02
2023-09-08T11:46:14.051Z,26.03
2023-09-08T11:47:15.489Z,26.09
2023-09-08T11:48:16.901Z,26.03
2023-09-08T11:49:18.437Z,26.13
2023-09-08T11:50:19.828Z,26.03
2023-09-08T11:51:21.282Z,26.06
2023-09-08T11:52:22.691Z,26.07
2023-09-08T11:53:24.113Z,26.10
2023-09-08T11:54:25.514Z,26.10
2023-09-08T11:55:27.059Z,25.95
2023-09-08T11:56:28.445Z,26.07
2023-09-08T11:57:29.837Z,26.06
2023-09-08T11:58:31.270Z,26.03
2023-09-08T11:59:32.652Z,26.05
2023-09-08T12:00:34.066Z,26.07
2023-09-08T12:01:35.537Z,25.96
2023-09-08T12:02:37.000Z,26.06
2023-09-08T12:03:38.432Z,26.00
2023-09-08T12:04:40.757Z,26.10
2023-09-08T12:05:42.207Z,25.99
2023-09-08T12:06:43.628Z,26.13
2023-09-08T12:07:45.092Z,26.02
2023-09-08T12:08:46.493Z,26.10
2023-09-08T12:09:47.974Z,26.09
2023-09-08T12:10:49.404Z,26.02
2023-09-08T12:11:50.853Z,25.93
2023-09-08T12:12:52.266Z,26.05
2023-09-08T12:13:53.663Z,26.10
2023-09-08T12:14:55.083Z,26.09
2023-09-08T12:15:56.558Z,25.99
2023-09-08T12:16:57.986Z,26.10
2023-09-08T12:17:59.404Z,25.99
2023-09-08T12:19:00.884Z,26.03
2023-09-08T12:20:02.335Z,26.00
2023-09-08T12:21:03.723Z,25.95
2023-09-08T12:22:05.229Z,25.99
2023-09-08T12:23:06.681Z,26.06
2023-09-08T12:24:08.110Z,25.96
2023-09-08T12:25:09.500Z,26.09
2023-09-08T12:26:10.889Z,26.00
2023-09-08T12:27:12.313Z,26.05
2023-09-08T12:28:13.730Z,26.07
2023-09-08T12:29:15.138Z,26.09
2023-09-08T12:30:16.535Z,26.09
2023-09-08T12:31:18.084Z,26.09
2023-09-08T12:32:19.581Z,26.02
2023-09-08T12:33:21.351Z,26.00
2023-09-08T12:34:22.471Z,26.13
2023-09-08T12:35:23.887Z,26.13
2023-09-08T12:36:25.315Z,26.07
2023-09-08T12:37:26.703Z,26.06
2023-09-08T12:38:28.196Z,26.10
2023-09-08T12:39:29.593Z,26.07
2023-09-08T12:40:30.989Z,26.10
2023-09-08T12:41:32.388Z,26.10
2023-09-08T12:42:34.829Z,26.16
2023-09-08T12:43:36.189Z,26.07
2023-09-08T12:44:37.588Z,26.18
2023-09-08T12:45:39.025Z,26.10
2023-09-08T12:46:40.452Z,26.19
2023-09-08T12:47:41.884Z,26.13
2023-09-08T12:48:43.403Z,26.19
2023-09-08T12:49:44.830Z,26.13
2023-09-08T12:50:46.226Z,26.15
2023-09-08T12:51:47.656Z,26.21
2023-09-08T12:52:49.053Z,26.21
2023-09-08T12:53:50.517Z,26.16
2023-09-08T12:54:52.087Z,26.22
2023-09-08T12:55:53.471Z,26.16
2023-09-08T12:56:54.924Z,26.19
2023-09-08T12:57:56.327Z,26.13
2023-09-08T12:58:57.708Z,26.19
2023-09-08T13:00:00.209Z,26.15
2023-09-08T13:01:01.719Z,26.19
2023-09-08T13:02:03.102Z,26.18
2023-09-08T13:03:04.581Z,26.21
2023-09-08T13:04:06.008Z,26.18
2023-09-08T13:05:07.483Z,26.19
2023-09-08T13:06:08.932Z,26.21
2023-09-08T13:07:10.352Z,26.21
2023-09-08T13:08:16.922Z,26.13
2023-09-08T13:09:18.408Z,26.21
2023-09-08T13:10:19.807Z,26.21
2023-09-08T13:11:21.252Z,26.23
2023-09-08T13:12:22.628Z,26.18